sensor_id;sensor_type;location;lat;lon;timestamp;pressure;altitude;pressure_sealevel;temperature;humidity
63493;BME280;49638;47.526;10.028;2023-12-20T00:02:20;91742.38;;;3.21;75.15
63493;BME280;49638;47.526;10.028;2023-12-20T00:05:20;91741.19;;;3.23;74.73
63493;BME280;49638;47.526;10.028;2023-12-20T00:08:20;91729.53;;;3.13;74.48
63493;BME280;49638;47.526;10.028;2023-12-20T00:11:20;91741.19;;;3.17;74.95
63493;BME280;49638;47.526;10.028;2023-12-20T00:14:21;91749.19;;;3.15;74.91
63493;BME280;49638;47.526;10.028;2023-12-20T00:17:21;91738.56;;;3.10;75.12
63493;BME280;49638;47.526;10.028;2023-12-20T00:20:21;91722.22;;;2.95;75.22
63493;BME280;49638;47.526;10.028;2023-12-20T00:23:21;91744.31;;;2.99;75.51
63493;BME280;49638;47.526;10.028;2023-12-20T00:26:23;91756.00;;;2.96;75.59
63493;BME280;49638;47.526;10.028;2023-12-20T00:29:23;91759.22;;;3.05;75.36
63493;BME280;49638;47.526;10.028;2023-12-20T00:32:23;91738.94;;;3.07;75.36
63493;BME280;49638;47.526;10.028;2023-12-20T00:35:24;91751.19;;;3.00;75.97
63493;BME280;49638;47.526;10.028;2023-12-20T00:38:24;91744.53;;;2.91;76.01
63493;BME280;49638;47.526;10.028;2023-12-20T00:41:25;91735.63;;;2.78;76.39
63493;BME280;49638;47.526;10.028;2023-12-20T00:44:25;91737.25;;;2.73;76.79
63493;BME280;49638;47.526;10.028;2023-12-20T00:47:26;91733.00;;;2.65;76.84
63493;BME280;49638;47.526;10.028;2023-12-20T00:50:26;91707.63;;;2.46;77.08
63493;BME280;49638;47.526;10.028;2023-12-20T00:53:26;91700.75;;;2.31;77.24
63493;BME280;49638;47.526;10.028;2023-12-20T00:56:27;91748.75;;;2.44;77.79
63493;BME280;49638;47.526;10.028;2023-12-20T00:59:27;91710.78;;;2.28;78.12
63493;BME280;49638;47.526;10.028;2023-12-20T01:02:27;91748.75;;;2.44;77.84
63493;BME280;49638;47.526;10.028;2023-12-20T01:05:27;91750.91;;;2.33;78.04
63493;BME280;49638;47.526;10.028;2023-12-20T01:08:28;91768.81;;;2.43;78.18
63493;BME280;49638;47.526;10.028;2023-12-20T01:11:29;91740.00;;;2.23;78.04
63493;BME280;49638;47.526;10.028;2023-12-20T01:14:29;91751.13;;;2.39;77.78
63493;BME280;49638;47.526;10.028;2023-12-20T01:17:29;91748.16;;;2.42;78.02
63493;BME280;49638;47.526;10.028;2023-12-20T01:20:29;91749.38;;;2.46;77.99
63493;BME280;49638;47.526;10.028;2023-12-20T01:23:30;91763.66;;;2.56;77.94
63493;BME280;49638;47.526;10.028;2023-12-20T01:26:30;91759.88;;;2.59;77.99
63493;BME280;49638;47.526;10.028;2023-12-20T01:29:31;91764.91;;;2.67;77.62
63493;BME280;49638;47.526;10.028;2023-12-20T01:32:31;91748.25;;;2.68;77.37
63493;BME280;49638;47.526;10.028;2023-12-20T01:35:31;91755.09;;;2.69;76.89
63493;BME280;49638;47.526;10.028;2023-12-20T01:38:31;91738.25;;;2.72;77.39
63493;BME280;49638;47.526;10.028;2023-12-20T01:41:32;91713.94;;;2.71;77.41
63493;BME280;49638;47.526;10.028;2023-12-20T01:44:32;91697.69;;;2.69;76.97
63493;BME280;49638;47.526;10.028;2023-12-20T01:47:33;91714.16;;;2.76;77.05
63493;BME280;49638;47.526;10.028;2023-12-20T01:50:35;91710.13;;;2.74;77.42
63493;BME280;49638;47.526;10.028;2023-12-20T01:53:36;91715.97;;;2.76;77.42
63493;BME280;49638;47.526;10.028;2023-12-20T01:56:37;91731.81;;;2.74;77.46
63493;BME280;49638;47.526;10.028;2023-12-20T01:59:39;91735.84;;;2.77;77.29
63493;BME280;49638;47.526;10.028;2023-12-20T02:02:40;91736.63;;;2.77;76.89
63493;BME280;49638;47.526;10.028;2023-12-20T02:05:41;91725.63;;;2.89;76.83
63493;BME280;49638;47.526;10.028;2023-12-20T02:08:41;91720.41;;;2.89;75.96
63493;BME280;49638;47.526;10.028;2023-12-20T02:11:41;91702.72;;;2.84;75.76
63493;BME280;49638;47.526;10.028;2023-12-20T02:14:42;91721.22;;;2.82;75.66
63493;BME280;49638;47.526;10.028;2023-12-20T02:17:42;91718.81;;;2.88;75.56
63493;BME280;49638;47.526;10.028;2023-12-20T02:20:43;91711.81;;;3.01;75.31
63493;BME280;49638;47.526;10.028;2023-12-20T02:23:43;91717.03;;;3.08;75.05
63493;BME280;49638;47.526;10.028;2023-12-20T02:26:44;91719.66;;;3.08;74.61
63493;BME280;49638;47.526;10.028;2023-12-20T02:29:46;91728.69;;;3.12;74.41
63493;BME280;49638;47.526;10.028;2023-12-20T02:32:48;91715.63;;;3.05;74.97
63493;BME280;49638;47.526;10.028;2023-12-20T02:35:49;91725.88;;;3.07;75.33
63493;BME280;49638;47.526;10.028;2023-12-20T02:38:50;91724.28;;;2.99;75.81
63493;BME280;49638;47.526;10.028;2023-12-20T02:41:50;91717.41;;;2.98;75.59
63493;BME280;49638;47.526;10.028;2023-12-20T02:44:51;91716.63;;;2.98;75.84
63493;BME280;49638;47.526;10.028;2023-12-20T02:47:51;91698.34;;;2.91;75.88
63493;BME280;49638;47.526;10.028;2023-12-20T02:50:51;91690.88;;;2.88;76.04
63493;BME280;49638;47.526;10.028;2023-12-20T02:53:52;91678.63;;;2.89;75.70
63493;BME280;49638;47.526;10.028;2023-12-20T02:56:52;91682.69;;;2.98;75.03
63493;BME280;49638;47.526;10.028;2023-12-20T02:59:52;91689.34;;;3.07;74.64
63493;BME280;49638;47.526;10.028;2023-12-20T03:02:53;91689.34;;;3.14;74.11
63493;BME280;49638;47.526;10.028;2023-12-20T03:05:53;91684.94;;;3.14;74.20
63493;BME280;49638;47.526;10.028;2023-12-20T03:08:53;91684.94;;;3.21;74.31
63493;BME280;49638;47.526;10.028;2023-12-20T03:11:53;91676.09;;;3.22;73.95
63493;BME280;49638;47.526;10.028;2023-12-20T03:14:54;91675.69;;;3.25;73.37
63493;BME280;49638;47.526;10.028;2023-12-20T03:17:54;91679.31;;;3.30;73.81
63493;BME280;49638;47.526;10.028;2023-12-20T03:20:54;91671.88;;;3.34;73.84
63493;BME280;49638;47.526;10.028;2023-12-20T03:23:54;91679.72;;;3.41;73.59
63493;BME280;49638;47.526;10.028;2023-12-20T03:26:55;91674.50;;;3.41;73.83
63493;BME280;49638;47.526;10.028;2023-12-20T03:29:55;91673.31;;;3.43;73.09
63493;BME280;49638;47.526;10.028;2023-12-20T03:32:55;91666.03;;;3.52;72.82
63493;BME280;49638;47.526;10.028;2023-12-20T03:35:55;91650.59;;;3.50;72.71
63493;BME280;49638;47.526;10.028;2023-12-20T03:38:56;91658.81;;;3.47;73.16
63493;BME280;49638;47.526;10.028;2023-12-20T03:41:56;91664.03;;;3.54;73.31
63493;BME280;49638;47.526;10.028;2023-12-20T03:44:56;91662.63;;;3.58;73.38
63493;BME280;49638;47.526;10.028;2023-12-20T03:47:56;91673.88;;;3.65;73.40
63493;BME280;49638;47.526;10.028;2023-12-20T03:50:57;91666.66;;;3.67;73.74
63493;BME280;49638;47.526;10.028;2023-12-20T03:53:57;91667.63;;;3.73;74.16
63493;BME280;49638;47.526;10.028;2023-12-20T03:56:57;91685.13;;;3.86;74.65
63493;BME280;49638;47.526;10.028;2023-12-20T03:59:58;91695.34;;;3.87;75.61
63493;BME280;49638;47.526;10.028;2023-12-20T04:02:58;91698.81;;;3.88;76.30
63493;BME280;49638;47.526;10.028;2023-12-20T04:05:58;91680.53;;;3.74;76.75
63493;BME280;49638;47.526;10.028;2023-12-20T04:08:59;91710.25;;;3.80;77.11
63493;BME280;49638;47.526;10.028;2023-12-20T04:11:59;91710.06;;;3.82;77.48
63493;BME280;49638;47.526;10.028;2023-12-20T04:14:59;91717.50;;;3.78;78.06
63493;BME280;49638;47.526;10.028;2023-12-20T04:17:59;91713.09;;;3.78;77.93
63493;BME280;49638;47.526;10.028;2023-12-20T04:21:00;91705.03;;;3.73;78.70
63493;BME280;49638;47.526;10.028;2023-12-20T04:24:00;91704.84;;;3.68;78.80
63493;BME280;49638;47.526;10.028;2023-12-20T04:27:01;91701.03;;;3.64;79.58
63493;BME280;49638;47.526;10.028;2023-12-20T04:30:01;91687.97;;;3.58;80.45
63493;BME280;49638;47.526;10.028;2023-12-20T04:33:02;91682.53;;;3.52;81.30
63493;BME280;49638;47.526;10.028;2023-12-20T04:36:02;91692.97;;;3.52;81.72
63493;BME280;49638;47.526;10.028;2023-12-20T04:39:03;91684.34;;;3.52;82.69
63493;BME280;49638;47.526;10.028;2023-12-20T04:42:03;91691.16;;;3.53;82.79
63493;BME280;49638;47.526;10.028;2023-12-20T04:45:04;91681.94;;;3.50;83.48
63493;BME280;49638;47.526;10.028;2023-12-20T04:48:05;91682.91;;;3.43;84.50
63493;BME280;49638;47.526;10.028;2023-12-20T04:51:05;91685.94;;;3.46;84.63
63493;BME280;49638;47.526;10.028;2023-12-20T04:54:06;91694.78;;;3.45;84.80
63493;BME280;49638;47.526;10.028;2023-12-20T04:57:06;91698.41;;;3.44;85.69
63493;BME280;49638;47.526;10.028;2023-12-20T05:00:06;91710.06;;;3.42;85.28
63493;BME280;49638;47.526;10.028;2023-12-20T05:03:08;91713.69;;;3.47;85.16
63493;BME280;49638;47.526;10.028;2023-12-20T05:06:10;91721.13;;;3.57;84.92
63493;BME280;49638;47.526;10.028;2023-12-20T05:09:10;91725.97;;;3.53;85.36
63493;BME280;49638;47.526;10.028;2023-12-20T05:12:11;91730.16;;;3.48;85.38
63493;BME280;49638;47.526;10.028;2023-12-20T05:15:11;91737.63;;;3.58;85.55
63493;BME280;49638;47.526;10.028;2023-12-20T05:18:11;91746.25;;;3.45;86.05
63493;BME280;49638;47.526;10.028;2023-12-20T05:21:12;91743.00;;;3.36;86.66
63493;BME280;49638;47.526;10.028;2023-12-20T05:24:12;91757.28;;;3.40;86.73
63493;BME280;49638;47.526;10.028;2023-12-20T05:27:12;91759.69;;;3.42;86.35
63493;BME280;49638;47.526;10.028;2023-12-20T05:30:13;91756.50;;;3.40;86.19
63493;BME280;49638;47.526;10.028;2023-12-20T05:33:13;91777.78;;;3.37;86.64
63493;BME280;49638;47.526;10.028;2023-12-20T05:36:14;91781.78;;;3.32;86.71
63493;BME280;49638;47.526;10.028;2023-12-20T05:39:15;91794.03;;;3.25;86.96
63493;BME280;49638;47.526;10.028;2023-12-20T05:42:15;91800.22;;;3.18;86.96
63493;BME280;49638;47.526;10.028;2023-12-20T05:45:15;91785.91;;;3.00;87.56
63493;BME280;49638;47.526;10.028;2023-12-20T05:48:16;91815.81;;;2.98;87.68
63493;BME280;49638;47.526;10.028;2023-12-20T05:51:16;91819.03;;;2.93;87.89
63493;BME280;49638;47.526;10.028;2023-12-20T05:54:16;91823.41;;;2.86;88.01
63493;BME280;49638;47.526;10.028;2023-12-20T05:57:16;91833.03;;;2.79;87.83
63493;BME280;49638;47.526;10.028;2023-12-20T06:00:17;91835.75;;;2.64;88.29
63493;BME280;49638;47.526;10.028;2023-12-20T06:03:17;91823.63;;;2.50;88.81
63493;BME280;49638;47.526;10.028;2023-12-20T06:06:18;91840.72;;;2.52;88.87
63493;BME280;49638;47.526;10.028;2023-12-20T06:09:18;91835.28;;;2.54;88.87
63493;BME280;49638;47.526;10.028;2023-12-20T06:12:18;91843.28;;;2.46;88.66
63493;BME280;49638;47.526;10.028;2023-12-20T06:15:18;91847.47;;;2.47;89.10
63493;BME280;49638;47.526;10.028;2023-12-20T06:18:19;91836.84;;;2.42;89.62
63493;BME280;49638;47.526;10.028;2023-12-20T06:21:19;91830.78;;;2.34;89.64
63493;BME280;49638;47.526;10.028;2023-12-20T06:24:20;91827.06;;;2.22;89.90
63493;BME280;49638;47.526;10.028;2023-12-20T06:27:21;91847.34;;;2.27;89.97
63493;BME280;49638;47.526;10.028;2023-12-20T06:30:21;91838.25;;;2.16;90.41
63493;BME280;49638;47.526;10.028;2023-12-20T06:33:22;91844.69;;;2.20;90.10
63493;BME280;49638;47.526;10.028;2023-12-20T06:36:23;91844.50;;;2.22;90.33
63493;BME280;49638;47.526;10.028;2023-12-20T06:39:23;91843.88;;;2.20;90.24
63493;BME280;49638;47.526;10.028;2023-12-20T06:42:24;91849.47;;;2.17;90.46
63493;BME280;49638;47.526;10.028;2023-12-20T06:45:24;91848.06;;;2.14;90.76
63493;BME280;49638;47.526;10.028;2023-12-20T06:48:24;91842.81;;;2.07;91.11
63493;BME280;49638;47.526;10.028;2023-12-20T06:51:24;91844.22;;;2.10;90.78
63493;BME280;49638;47.526;10.028;2023-12-20T06:54:25;91852.72;;;2.19;90.75
63493;BME280;49638;47.526;10.028;2023-12-20T06:57:25;91852.50;;;2.20;90.99
63493;BME280;49638;47.526;10.028;2023-12-20T07:00:26;91850.91;;;2.19;90.71
63493;BME280;49638;47.526;10.028;2023-12-20T07:03:26;91849.91;;;2.20;91.48
63493;BME280;49638;47.526;10.028;2023-12-20T07:06:26;91857.50;;;2.15;91.37
63493;BME280;49638;47.526;10.028;2023-12-20T07:09:27;91864.94;;;2.18;91.46
63493;BME280;49638;47.526;10.028;2023-12-20T07:12:27;91874.84;;;2.29;91.26
63493;BME280;49638;47.526;10.028;2023-12-20T07:15:28;91871.25;;;2.30;91.85
63493;BME280;49638;47.526;10.028;2023-12-20T07:18:29;91865.00;;;2.25;91.83
63493;BME280;49638;47.526;10.028;2023-12-20T07:21:29;91859.97;;;2.23;92.09
63493;BME280;49638;47.526;10.028;2023-12-20T07:24:30;91862.81;;;2.28;91.55
63493;BME280;49638;47.526;10.028;2023-12-20T07:27:30;91859.59;;;2.26;91.65
63493;BME280;49638;47.526;10.028;2023-12-20T07:30:30;91865.22;;;2.30;91.91
63493;BME280;49638;47.526;10.028;2023-12-20T07:33:30;91869.00;;;2.27;92.30
63493;BME280;49638;47.526;10.028;2023-12-20T07:36:31;91862.44;;;2.31;92.06
63493;BME280;49638;47.526;10.028;2023-12-20T07:39:31;91840.09;;;2.22;92.26
63493;BME280;49638;47.526;10.028;2023-12-20T07:42:31;91865.19;;;2.23;92.52
63493;BME280;49638;47.526;10.028;2023-12-20T07:45:31;91850.28;;;2.17;93.64
63493;BME280;49638;47.526;10.028;2023-12-20T07:48:33;91849.91;;;2.20;92.61
63493;BME280;49638;47.526;10.028;2023-12-20T07:51:33;91849.91;;;2.20;92.92
63493;BME280;49638;47.526;10.028;2023-12-20T07:54:33;91869.25;;;2.32;92.62
63493;BME280;49638;47.526;10.028;2023-12-20T07:57:34;91859.59;;;2.26;93.26
63493;BME280;49638;47.526;10.028;2023-12-20T08:00:34;91866.44;;;2.34;92.89
63493;BME280;49638;47.526;10.028;2023-12-20T08:03:34;91865.91;;;2.39;92.56
63493;BME280;49638;47.526;10.028;2023-12-20T08:06:35;91857.28;;;2.38;92.70
63493;BME280;49638;47.526;10.028;2023-12-20T08:09:35;91872.78;;;2.46;92.60
63493;BME280;49638;47.526;10.028;2023-12-20T08:12:36;91880.78;;;2.45;93.46
63493;BME280;49638;47.526;10.028;2023-12-20T08:15:37;91883.19;;;2.46;93.12
63493;BME280;49638;47.526;10.028;2023-12-20T08:18:37;91890.22;;;2.46;92.95
63493;BME280;49638;47.526;10.028;2023-12-20T08:21:37;91890.81;;;2.48;92.89
63493;BME280;49638;47.526;10.028;2023-12-20T08:24:38;91893.84;;;2.51;93.09
63493;BME280;49638;47.526;10.028;2023-12-20T08:27:40;91901.09;;;2.49;93.24
63493;BME280;49638;47.526;10.028;2023-12-20T08:30:40;91897.47;;;2.50;92.82
63493;BME280;49638;47.526;10.028;2023-12-20T08:33:40;91905.72;;;2.54;92.71
63493;BME280;49638;47.526;10.028;2023-12-20T08:36:41;91893.69;;;2.53;93.18
63493;BME280;49638;47.526;10.028;2023-12-20T08:39:41;91892.09;;;2.52;93.03
63493;BME280;49638;47.526;10.028;2023-12-20T08:42:41;91879.84;;;2.52;93.18
63493;BME280;49638;47.526;10.028;2023-12-20T08:45:41;91882.56;;;2.44;93.08
63493;BME280;49638;47.526;10.028;2023-12-20T08:48:42;91900.72;;;2.52;93.29
63493;BME280;49638;47.526;10.028;2023-12-20T08:51:42;91897.91;;;2.54;93.50
63493;BME280;49638;47.526;10.028;2023-12-20T08:54:42;91899.53;;;2.55;93.40
63493;BME280;49638;47.526;10.028;2023-12-20T08:57:43;91895.53;;;2.59;93.18
63493;BME280;49638;47.526;10.028;2023-12-20T09:00:43;91892.34;;;2.64;93.35
63493;BME280;49638;47.526;10.028;2023-12-20T09:03:43;91885.94;;;2.66;93.23
63493;BME280;49638;47.526;10.028;2023-12-20T09:06:43;91886.16;;;2.71;93.00
63493;BME280;49638;47.526;10.028;2023-12-20T09:09:44;91884.38;;;2.72;93.53
63493;BME280;49638;47.526;10.028;2023-12-20T09:12:44;91888.78;;;2.71;93.47
63493;BME280;49638;47.526;10.028;2023-12-20T09:15:44;91874.72;;;2.66;93.58
63493;BME280;49638;47.526;10.028;2023-12-20T09:18:44;91875.34;;;2.74;93.84
63493;BME280;49638;47.526;10.028;2023-12-20T09:21:45;91883.78;;;2.76;93.66
63493;BME280;49638;47.526;10.028;2023-12-20T09:24:45;91866.13;;;2.72;93.60
63493;BME280;49638;47.526;10.028;2023-12-20T09:27:45;91869.97;;;2.82;93.63
63493;BME280;49638;47.526;10.028;2023-12-20T09:30:45;91884.25;;;2.87;93.69
63493;BME280;49638;47.526;10.028;2023-12-20T09:33:46;91876.22;;;2.88;93.76
63493;BME280;49638;47.526;10.028;2023-12-20T09:36:46;91869.19;;;2.89;93.77
63493;BME280;49638;47.526;10.028;2023-12-20T09:39:47;91876.84;;;2.90;93.91
63493;BME280;49638;47.526;10.028;2023-12-20T09:43:08;91879.03;;;2.87;94.63
63493;BME280;49638;47.526;10.028;2023-12-20T09:46:12;91875.81;;;2.84;94.25
63493;BME280;49638;47.526;10.028;2023-12-20T09:49:17;91879.03;;;2.87;94.25
63493;BME280;49638;47.526;10.028;2023-12-20T09:52:18;91875.41;;;2.88;94.15
63493;BME280;49638;47.526;10.028;2023-12-20T09:55:19;91873.84;;;2.93;94.45
63493;BME280;49638;47.526;10.028;2023-12-20T09:58:20;91872.03;;;2.94;94.55
63493;BME280;49638;47.526;10.028;2023-12-20T10:01:21;91876.88;;;2.97;94.71
63493;BME280;49638;47.526;10.028;2023-12-20T10:04:21;91868.47;;;3.01;94.51
63493;BME280;49638;47.526;10.028;2023-12-20T10:07:21;91857.63;;;3.04;94.70
63493;BME280;49638;47.526;10.028;2023-12-20T10:10:22;91857.03;;;3.09;94.28
63493;BME280;49638;47.526;10.028;2023-12-20T10:13:22;91848.63;;;3.14;94.43
63493;BME280;49638;47.526;10.028;2023-12-20T10:16:24;91843.41;;;3.14;94.76
63493;BME280;49638;47.526;10.028;2023-12-20T10:19:25;91836.97;;;3.10;94.54
63493;BME280;49638;47.526;10.028;2023-12-20T10:22:26;91838.19;;;3.14;94.56
63493;BME280;49638;47.526;10.028;2023-12-20T10:25:27;91846.06;;;3.20;94.66
63493;BME280;49638;47.526;10.028;2023-12-20T10:28:33;91846.44;;;3.17;95.10
63493;BME280;49638;47.526;10.028;2023-12-20T10:31:34;91838.78;;;3.16;94.54
63493;BME280;49638;47.526;10.028;2023-12-20T10:34:35;91844.22;;;3.14;95.16
63493;BME280;49638;47.526;10.028;2023-12-20T10:37:38;91840.38;;;3.10;95.32
63493;BME280;49638;47.526;10.028;2023-12-20T10:40:39;91835.75;;;3.12;95.16
63493;BME280;49638;47.526;10.028;2023-12-20T10:43:39;91822.31;;;3.15;94.92
63493;BME280;49638;47.526;10.028;2023-12-20T10:46:40;91823.13;;;3.16;95.01
63493;BME280;49638;47.526;10.028;2023-12-20T10:49:47;91796.59;;;3.12;95.39
63493;BME280;49638;47.526;10.028;2023-12-20T10:52:48;91802.47;;;3.21;95.23
63493;BME280;49638;47.526;10.028;2023-12-20T10:55:52;91803.47;;;3.26;95.53
63493;BME280;49638;47.526;10.028;2023-12-20T10:58:56;91803.91;;;3.37;95.13
63493;BME280;49638;47.526;10.028;2023-12-20T11:01:57;91793.47;;;3.43;95.08
63493;BME280;49638;47.526;10.028;2023-12-20T11:05:12;91786.22;;;3.45;96.56
63493;BME280;49638;47.526;10.028;2023-12-20T11:08:24;91786.44;;;3.44;95.29
63493;BME280;49638;47.526;10.028;2023-12-20T11:11:52;91786.44;;;3.44;95.08
63493;BME280;49638;47.526;10.028;2023-12-20T11:14:55;91802.34;;;3.62;94.93
63493;BME280;49638;47.526;10.028;2023-12-20T11:17:58;91796.31;;;3.68;94.86
63493;BME280;49638;47.526;10.028;2023-12-20T11:21:04;91797.13;;;3.69;95.05
63493;BME280;49638;47.526;10.028;2023-12-20T11:24:05;91791.47;;;3.59;94.64
63493;BME280;49638;47.526;10.028;2023-12-20T11:27:05;91792.28;;;3.66;94.71
63493;BME280;49638;47.526;10.028;2023-12-20T11:30:06;91796.72;;;3.65;94.80
63493;BME280;49638;47.526;10.028;2023-12-20T11:33:07;91786.66;;;3.62;94.41
63493;BME280;49638;47.526;10.028;2023-12-20T11:36:19;91792.69;;;3.69;94.89
63493;BME280;49638;47.526;10.028;2023-12-20T11:39:21;91781.03;;;3.72;94.43
63493;BME280;49638;47.526;10.028;2023-12-20T11:42:21;91785.88;;;3.75;94.59
63493;BME280;49638;47.526;10.028;2023-12-20T11:45:24;91784.84;;;3.76;94.61
63493;BME280;49638;47.526;10.028;2023-12-20T11:48:25;91785.47;;;3.71;94.61
63493;BME280;49638;47.526;10.028;2023-12-20T11:51:25;91782.63;;;3.66;94.54
63493;BME280;49638;47.526;10.028;2023-12-20T11:54:25;91771.97;;;3.54;94.63
63493;BME280;49638;47.526;10.028;2023-12-20T11:57:26;91780.00;;;3.60;94.87
63493;BME280;49638;47.526;10.028;2023-12-20T12:00:26;91782.63;;;3.60;94.65
63493;BME280;49638;47.526;10.028;2023-12-20T12:03:26;91778.63;;;3.64;94.40
63493;BME280;49638;47.526;10.028;2023-12-20T12:06:26;91777.81;;;3.63;94.75
63493;BME280;49638;47.526;10.028;2023-12-20T12:09:27;91776.19;;;3.62;94.86
63493;BME280;49638;47.526;10.028;2023-12-20T12:12:27;91775.00;;;3.58;95.08
63493;BME280;49638;47.526;10.028;2023-12-20T12:15:29;91782.63;;;3.53;95.43
63493;BME280;49638;47.526;10.028;2023-12-20T12:18:29;91781.22;;;3.50;95.40
63493;BME280;49638;47.526;10.028;2023-12-20T12:21:29;91783.03;;;3.50;95.22
63493;BME280;49638;47.526;10.028;2023-12-20T12:24:30;91772.75;;;3.42;95.55
63493;BME280;49638;47.526;10.028;2023-12-20T12:27:30;91786.22;;;3.45;95.52
63493;BME280;49638;47.526;10.028;2023-12-20T12:30:30;91780.41;;;3.37;95.89
63493;BME280;49638;47.526;10.028;2023-12-20T12:33:31;91785.22;;;3.33;95.60
63493;BME280;49638;47.526;10.028;2023-12-20T12:36:31;91802.91;;;3.38;95.68
63493;BME280;49638;47.526;10.028;2023-12-20T12:39:32;91787.84;;;3.40;95.69
63493;BME280;49638;47.526;10.028;2023-12-20T12:42:32;91783.41;;;3.34;95.63
63493;BME280;49638;47.526;10.028;2023-12-20T12:45:32;91782.19;;;3.23;96.02
63493;BME280;49638;47.526;10.028;2023-12-20T12:48:33;91788.41;;;3.28;96.11
63493;BME280;49638;47.526;10.028;2023-12-20T12:51:33;91783.38;;;3.20;96.20
63493;BME280;49638;47.526;10.028;2023-12-20T12:54:34;91779.34;;;3.18;96.18
63493;BME280;49638;47.526;10.028;2023-12-20T12:57:34;91778.94;;;3.14;96.44
63493;BME280;49638;47.526;10.028;2023-12-20T13:00:34;91770.88;;;3.16;96.16
63493;BME280;49638;47.526;10.028;2023-12-20T13:03:35;91769.28;;;3.15;96.39
63493;BME280;49638;47.526;10.028;2023-12-20T13:06:36;91766.50;;;3.16;96.47
63493;BME280;49638;47.526;10.028;2023-12-20T13:09:38;91767.69;;;3.14;96.48
63493;BME280;49638;47.526;10.028;2023-12-20T13:12:39;91765.25;;;3.12;96.30
63493;BME280;49638;47.526;10.028;2023-12-20T13:15:39;91769.50;;;3.13;96.46
63493;BME280;49638;47.526;10.028;2023-12-20T13:18:41;91754.78;;;3.05;96.27
63493;BME280;49638;47.526;10.028;2023-12-20T13:21:42;91764.84;;;3.08;96.11
63493;BME280;49638;47.526;10.028;2023-12-20T13:24:42;91772.50;;;3.10;96.04
63493;BME280;49638;47.526;10.028;2023-12-20T13:27:44;91778.53;;;3.11;96.10
63493;BME280;49638;47.526;10.028;2023-12-20T13:30:44;91763.47;;;3.06;96.04
63493;BME280;49638;47.526;10.028;2023-12-20T13:33:44;91769.50;;;3.13;95.85
63493;BME280;49638;47.526;10.028;2023-12-20T13:36:45;91777.72;;;3.10;96.16
63493;BME280;49638;47.526;10.028;2023-12-20T13:39:47;91763.22;;;3.01;96.11
63493;BME280;49638;47.526;10.028;2023-12-20T13:42:48;91771.28;;;3.06;96.23
63493;BME280;49638;47.526;10.028;2023-12-20T13:45:48;91774.09;;;3.11;96.16
63493;BME280;49638;47.526;10.028;2023-12-20T13:48:48;91784.16;;;3.14;96.18
63493;BME280;49638;47.526;10.028;2023-12-20T13:51:49;91774.50;;;3.08;96.08
63493;BME280;49638;47.526;10.028;2023-12-20T13:54:50;91786.56;;;3.16;96.00
63493;BME280;49638;47.526;10.028;2023-12-20T13:57:51;91794.56;;;3.07;96.11
63493;BME280;49638;47.526;10.028;2023-12-20T14:00:51;91809.06;;;3.10;96.27
63493;BME280;49638;47.526;10.028;2023-12-20T14:03:51;91811.84;;;3.08;96.44
63493;BME280;49638;47.526;10.028;2023-12-20T14:06:52;91819.25;;;3.05;96.10
63493;BME280;49638;47.526;10.028;2023-12-20T14:09:52;91822.28;;;3.08;96.00
63493;BME280;49638;47.526;10.028;2023-12-20T14:12:53;91816.09;;;3.10;95.88
63493;BME280;49638;47.526;10.028;2023-12-20T14:15:54;91803.41;;;3.00;95.86
63493;BME280;49638;47.526;10.028;2023-12-20T14:18:54;91824.88;;;3.02;96.01
63493;BME280;49638;47.526;10.028;2023-12-20T14:21:57;91822.25;;;3.02;96.25
63493;BME280;49638;47.526;10.028;2023-12-20T14:25:01;91825.25;;;2.99;95.83
63493;BME280;49638;47.526;10.028;2023-12-20T14:28:03;91830.91;;;2.96;95.62
63493;BME280;49638;47.526;10.028;2023-12-20T14:31:03;91829.47;;;2.93;95.59
63493;BME280;49638;47.526;10.028;2023-12-20T14:34:05;91839.72;;;2.95;95.59
63493;BME280;49638;47.526;10.028;2023-12-20T14:37:06;91837.47;;;2.92;95.55
63493;BME280;49638;47.526;10.028;2023-12-20T14:40:07;91816.53;;;2.78;95.30
63493;BME280;49638;47.526;10.028;2023-12-20T14:43:11;91833.06;;;2.86;95.55
63493;BME280;49638;47.526;10.028;2023-12-20T14:46:11;91829.78;;;2.77;95.49
63493;BME280;49638;47.526;10.028;2023-12-20T14:49:11;91836.66;;;2.84;95.32
63493;BME280;49638;47.526;10.028;2023-12-20T14:52:12;91832.19;;;2.78;95.59
63493;BME280;49638;47.526;10.028;2023-12-20T14:55:12;91831.78;;;2.75;95.45
63493;BME280;49638;47.526;10.028;2023-12-20T14:58:12;91839.19;;;2.71;95.46
63493;BME280;49638;47.526;10.028;2023-12-20T15:01:13;91836.19;;;2.74;95.58
63493;BME280;49638;47.526;10.028;2023-12-20T15:04:13;91841.81;;;2.71;95.40
63493;BME280;49638;47.526;10.028;2023-12-20T15:07:15;91862.28;;;2.74;95.75
63493;BME280;49638;47.526;10.028;2023-12-20T15:10:15;91866.13;;;2.72;95.56
63493;BME280;49638;47.526;10.028;2023-12-20T15:13:17;91862.69;;;2.71;95.56
63493;BME280;49638;47.526;10.028;2023-12-20T15:16:17;91879.53;;;2.69;95.06
63493;BME280;49638;47.526;10.028;2023-12-20T15:19:17;91871.91;;;2.67;95.31
63493;BME280;49638;47.526;10.028;2023-12-20T15:22:18;91872.47;;;2.63;95.38
63493;BME280;49638;47.526;10.028;2023-12-20T15:25:18;91877.88;;;2.61;95.57
63493;BME280;49638;47.526;10.028;2023-12-20T15:28:22;91880.84;;;2.58;95.49
63493;BME280;49638;47.526;10.028;2023-12-20T15:31:22;91859.94;;;2.51;95.19
63493;BME280;49638;47.526;10.028;2023-12-20T15:34:26;91866.22;;;2.57;94.89
63493;BME280;49638;47.526;10.028;2023-12-20T15:37:26;91860.53;;;2.47;95.07
63493;BME280;49638;47.526;10.028;2023-12-20T15:40:27;91872.38;;;2.49;94.67
63493;BME280;49638;47.526;10.028;2023-12-20T15:43:27;91852.47;;;2.42;94.95
63493;BME280;49638;47.526;10.028;2023-12-20T15:46:28;91870.75;;;2.42;95.29
63493;BME280;49638;47.526;10.028;2023-12-20T15:49:28;91864.03;;;2.32;95.19
63493;BME280;49638;47.526;10.028;2023-12-20T15:52:30;91853.38;;;2.27;95.02
63493;BME280;49638;47.526;10.028;2023-12-20T15:55:30;91877.09;;;2.32;94.84
63493;BME280;49638;47.526;10.028;2023-12-20T15:58:30;91867.66;;;2.31;94.66